createdAt,value
2022-10-09T00:01:16.335Z,11.70
2022-10-09T00:03:46.014Z,11.70
2022-10-09T00:06:16.362Z,11.60
2022-10-09T00:08:44.590Z,11.50
2022-10-09T00:11:14.153Z,11.50
2022-10-09T00:13:43.651Z,11.50
2022-10-09T00:16:14.253Z,11.50
2022-10-09T00:18:42.300Z,11.50
2022-10-09T00:21:18.846Z,11.50
2022-10-09T00:23:46.713Z,11.40
2022-10-09T00:26:14.657Z,11.40
2022-10-09T00:28:44.080Z,11.40
2022-10-09T00:31:13.191Z,11.40
2022-10-09T00:33:41.332Z,11.40
2022-10-09T00:36:12.449Z,11.40
2022-10-09T00:38:40.554Z,11.40
2022-10-09T00:41:08.686Z,11.30
2022-10-09T00:43:46.933Z,11.30
2022-10-09T00:46:27.449Z,11.20
2022-10-09T00:49:06.896Z,11.20
2022-10-09T00:51:36.037Z,11.20
2022-10-09T00:54:08.225Z,11.20
2022-10-09T00:56:36.496Z,11.20
2022-10-09T00:59:06.301Z,11.20
2022-10-09T01:01:34.303Z,11.20
2022-10-09T01:04:02.213Z,11.10
2022-10-09T01:06:41.677Z,11.10
2022-10-09T01:09:15.675Z,11.10
2022-10-09T01:11:50.238Z,11.10
2022-10-09T01:14:27.094Z,11.10
2022-10-09T01:17:03.453Z,11.00
2022-10-09T01:19:51.929Z,11.10
2022-10-09T01:22:31.849Z,11.00
2022-10-09T01:25:05.985Z,11.00
2022-10-09T01:27:36.684Z,11.00
2022-10-09T01:30:07.541Z,11.00
2022-10-09T01:32:39.143Z,11.00
2022-10-09T01:35:09.568Z,11.00
2022-10-09T01:37:39.507Z,11.00
2022-10-09T01:40:09.925Z,11.00
2022-10-09T01:42:39.757Z,11.00
2022-10-09T01:45:08.474Z,11.00
2022-10-09T01:47:37.731Z,10.90
2022-10-09T01:50:13.327Z,10.90
2022-10-09T01:52:48.832Z,10.90
2022-10-09T01:55:32.409Z,10.90
2022-10-09T01:58:10.091Z,10.90
2022-10-09T02:00:40.786Z,10.90
2022-10-09T02:03:12.285Z,10.80
2022-10-09T02:05:42.257Z,10.80
2022-10-09T02:08:12.268Z,10.80
2022-10-09T02:10:42.108Z,10.80
2022-10-09T02:13:11.770Z,10.80
2022-10-09T02:15:47.601Z,10.80
2022-10-09T02:18:20.736Z,10.80
2022-10-09T02:20:52.895Z,10.80
2022-10-09T02:23:22.683Z,10.80
2022-10-09T02:25:51.518Z,10.80
2022-10-09T02:28:21.981Z,10.80
2022-10-09T02:30:55.909Z,10.80
2022-10-09T02:33:28.707Z,10.70
2022-10-09T02:35:56.628Z,10.70
2022-10-09T02:38:24.488Z,10.70
2022-10-09T02:40:52.323Z,10.60
2022-10-09T02:43:21.500Z,10.70
2022-10-09T02:45:49.360Z,10.70
2022-10-09T02:48:17.230Z,10.70
2022-10-09T02:50:45.087Z,10.60
2022-10-09T02:53:12.937Z,10.70
2022-10-09T02:55:40.777Z,10.60
2022-10-09T02:58:08.596Z,10.60
2022-10-09T03:00:39.267Z,10.50
2022-10-09T03:03:07.198Z,10.50
2022-10-09T03:05:35.087Z,10.40
2022-10-09T03:08:03.085Z,10.40
2022-10-09T03:10:30.933Z,10.30
2022-10-09T03:12:58.757Z,10.30
2022-10-09T03:15:26.584Z,10.30
2022-10-09T03:17:55.743Z,10.30
2022-10-09T03:20:23.579Z,10.20
2022-10-09T03:22:51.779Z,10.20
2022-10-09T03:25:20.286Z,10.20
2022-10-09T03:27:48.140Z,10.10
2022-10-09T03:30:16.295Z,10.10
2022-10-09T03:32:44.146Z,10.10
2022-10-09T03:35:13.340Z,10.10
2022-10-09T03:37:41.213Z,10.10
2022-10-09T03:40:09.997Z,10.10
2022-10-09T03:42:37.802Z,10.00
2022-10-09T03:45:06.314Z,10.00
2022-10-09T03:47:34.200Z,10.00
2022-10-09T03:50:02.052Z,10.00
2022-10-09T03:52:31.360Z,9.90
2022-10-09T03:54:59.202Z,9.90
2022-10-09T03:57:27.034Z,9.80
2022-10-09T03:59:54.830Z,9.80
2022-10-09T04:02:22.790Z,9.80
2022-10-09T04:04:50.681Z,9.70
2022-10-09T04:07:18.649Z,9.70
2022-10-09T04:09:47.794Z,9.60
2022-10-09T04:12:15.636Z,9.60
2022-10-09T04:14:43.563Z,9.60
2022-10-09T04:17:11.375Z,9.60
2022-10-09T04:19:39.235Z,9.50
2022-10-09T04:22:07.056Z,9.60
2022-10-09T04:24:34.926Z,9.60
2022-10-09T04:27:04.563Z,9.50
2022-10-09T04:29:32.374Z,9.50
2022-10-09T04:32:00.365Z,9.50
2022-10-09T04:34:28.262Z,9.50
2022-10-09T04:36:56.100Z,9.50
2022-10-09T04:39:23.920Z,9.40
2022-10-09T04:41:51.753Z,9.40
2022-10-09T04:44:21.001Z,9.40
2022-10-09T04:46:51.267Z,9.30
2022-10-09T04:49:19.427Z,9.30
2022-10-09T04:51:47.301Z,9.30
2022-10-09T04:54:15.141Z,9.20
2022-10-09T04:56:42.977Z,9.20
2022-10-09T04:59:10.833Z,9.20
2022-10-09T05:01:40.136Z,9.20
2022-10-09T05:04:08.037Z,9.10
2022-10-09T05:06:35.976Z,9.20
2022-10-09T05:09:03.978Z,9.10
2022-10-09T05:11:31.839Z,9.10
2022-10-09T05:14:00.108Z,9.10
2022-10-09T05:16:31.558Z,9.00
2022-10-09T05:19:01.504Z,9.00
2022-10-09T05:21:31.010Z,9.00
2022-10-09T05:23:58.893Z,9.00
2022-10-09T05:26:28.039Z,9.00
2022-10-09T05:28:56.107Z,9.00
2022-10-09T05:31:26.047Z,9.00
2022-10-09T05:33:54.097Z,9.00
2022-10-09T05:36:23.526Z,8.90
2022-10-09T05:38:51.342Z,8.90
2022-10-09T05:41:19.851Z,8.90
2022-10-09T05:43:49.509Z,8.90
2022-10-09T05:46:19.244Z,8.90
2022-10-09T05:48:52.328Z,8.90
2022-10-09T05:51:22.426Z,8.90
2022-10-09T05:53:52.353Z,8.90
2022-10-09T05:56:22.197Z,8.90
2022-10-09T05:58:52.268Z,8.90
2022-10-09T06:01:20.278Z,8.90
2022-10-09T06:03:50.888Z,8.90
2022-10-09T06:06:20.226Z,8.90
2022-10-09T06:08:48.440Z,8.90
2022-10-09T06:11:19.443Z,8.90
2022-10-09T06:13:48.411Z,8.80
2022-10-09T06:16:17.903Z,8.80
2022-10-09T06:18:49.344Z,8.70
2022-10-09T06:21:18.022Z,8.70
2022-10-09T06:23:49.785Z,8.70
2022-10-09T06:26:19.858Z,8.70
2022-10-09T06:28:48.210Z,8.80
2022-10-09T06:31:17.866Z,8.80
2022-10-09T06:33:47.135Z,8.80
2022-10-09T06:36:17.053Z,8.80
2022-10-09T06:38:45.250Z,8.80
2022-10-09T06:41:14.850Z,8.80
2022-10-09T06:43:44.806Z,8.80
2022-10-09T06:46:13.801Z,8.90
2022-10-09T06:48:42.100Z,9.00
2022-10-09T06:51:12.263Z,9.00
2022-10-09T06:53:43.297Z,9.10
2022-10-09T06:56:11.769Z,9.10
2022-10-09T06:58:40.487Z,9.20
2022-10-09T07:01:11.660Z,9.30
2022-10-09T07:03:41.718Z,9.40
2022-10-09T07:06:11.705Z,9.40
2022-10-09T07:08:40.917Z,9.50
2022-10-09T07:11:10.531Z,9.60
2022-10-09T07:13:38.767Z,9.70
2022-10-09T07:16:07.271Z,9.80
2022-10-09T07:18:37.068Z,9.90
2022-10-09T07:21:06.179Z,10.00
2022-10-09T07:23:35.357Z,10.30
2022-10-09T07:26:03.707Z,10.60
2022-10-09T07:28:31.705Z,11.50
2022-10-09T07:31:03.267Z,13.20
2022-10-09T07:33:31.189Z,14.90
2022-10-09T07:36:05.248Z,16.30
2022-10-09T07:38:33.535Z,17.50
2022-10-09T07:41:02.645Z,18.30
2022-10-09T07:43:30.895Z,18.70
2022-10-09T07:46:02.640Z,19.10
2022-10-09T07:48:30.749Z,19.50
2022-10-09T07:51:07.800Z,20.00
2022-10-09T07:53:36.152Z,20.40
2022-10-09T07:56:05.324Z,21.00
2022-10-09T07:58:33.254Z,21.40
2022-10-09T08:01:05.587Z,21.70
2022-10-09T08:03:33.744Z,22.20
2022-10-09T08:06:03.269Z,22.60
2022-10-09T08:08:31.114Z,23.00
2022-10-09T08:10:59.045Z,23.50
2022-10-09T08:13:27.331Z,23.80
2022-10-09T08:15:58.611Z,24.50
2022-10-09T08:18:26.562Z,25.20
2022-10-09T08:20:59.572Z,26.00
2022-10-09T08:23:29.238Z,26.90
2022-10-09T08:25:57.257Z,27.60
2022-10-09T08:28:25.395Z,28.30
2022-10-09T08:30:53.514Z,29.00
2022-10-09T08:33:22.160Z,29.60
2022-10-09T08:35:50.182Z,30.10
2022-10-09T08:38:44.767Z,30.70
2022-10-09T08:41:10.963Z,31.30
2022-10-09T08:43:43.340Z,31.80
2022-10-09T08:46:21.019Z,32.30
2022-10-09T08:48:50.702Z,32.70
2022-10-09T08:51:24.267Z,33.20
2022-10-09T08:53:58.547Z,33.70
2022-10-09T08:56:31.206Z,34.20
2022-10-09T08:58:59.173Z,34.40
2022-10-09T09:01:34.882Z,34.80
2022-10-09T09:04:28.139Z,35.20
2022-10-09T09:07:02.988Z,35.60
2022-10-09T09:09:40.584Z,35.80
2022-10-09T09:12:19.140Z,36.10
2022-10-09T09:15:07.847Z,36.30
2022-10-09T09:17:41.427Z,36.50
2022-10-09T09:20:17.230Z,36.80
2022-10-09T09:22:50.024Z,37.20
2022-10-09T09:25:24.852Z,37.50
2022-10-09T09:27:55.991Z,37.60
2022-10-09T09:30:27.172Z,38.00
2022-10-09T09:33:01.966Z,38.20
2022-10-09T09:35:38.799Z,38.40
2022-10-09T09:38:06.673Z,38.60
2022-10-09T09:40:37.687Z,38.90
2022-10-09T09:43:16.008Z,39.10
2022-10-09T09:45:44.794Z,39.20
2022-10-09T09:48:16.389Z,39.40
2022-10-09T09:50:52.917Z,39.60
2022-10-09T09:53:31.300Z,39.70
2022-10-09T09:55:59.853Z,39.90
2022-10-09T09:58:35.525Z,40.20
2022-10-09T10:01:08.416Z,40.40
2022-10-09T10:03:37.290Z,40.50
2022-10-09T10:06:05.505Z,40.70
2022-10-09T10:08:34.857Z,40.90
2022-10-09T10:11:06.949Z,41.30
2022-10-09T10:13:38.614Z,41.30
2022-10-09T10:16:08.729Z,41.50
2022-10-09T10:18:40.796Z,41.70
2022-10-09T10:21:12.300Z,41.80
2022-10-09T10:23:43.523Z,42.10
2022-10-09T10:26:20.639Z,42.30
2022-10-09T10:28:54.326Z,42.50
2022-10-09T10:31:38.369Z,42.70
2022-10-09T10:34:08.544Z,43.00
2022-10-09T10:36:37.669Z,43.00
2022-10-09T10:39:11.839Z,43.20
2022-10-09T10:41:45.313Z,43.30
2022-10-09T10:44:23.576Z,43.50
2022-10-09T10:46:55.817Z,43.60
2022-10-09T10:49:24.679Z,43.70
2022-10-09T10:52:05.838Z,43.70
2022-10-09T10:54:42.009Z,43.80
2022-10-09T10:57:17.272Z,43.80
2022-10-09T10:59:57.648Z,43.90
2022-10-09T11:02:49.441Z,43.60
2022-10-09T11:05:27.537Z,43.40
2022-10-09T11:08:08.858Z,42.90
2022-10-09T11:10:48.723Z,42.50
2022-10-09T11:13:23.674Z,42.10
2022-10-09T11:16:02.269Z,41.60
2022-10-09T11:18:48.907Z,41.70
2022-10-09T11:21:29.900Z,41.90
2022-10-09T11:24:24.065Z,41.70
2022-10-09T11:27:03.577Z,41.10
2022-10-09T11:29:38.163Z,40.40
2022-10-09T11:32:17.451Z,39.90
2022-10-09T11:34:49.442Z,39.60
2022-10-09T11:37:21.985Z,39.80
2022-10-09T11:39:49.864Z,40.30
2022-10-09T11:42:23.793Z,40.90
2022-10-09T11:45:01.839Z,41.20
2022-10-09T11:47:39.659Z,41.50
2022-10-09T11:50:19.608Z,42.00
2022-10-09T11:52:55.496Z,42.20
2022-10-09T11:55:25.749Z,42.20
2022-10-09T11:57:54.055Z,42.10
2022-10-09T12:00:31.550Z,41.80
2022-10-09T12:03:02.857Z,41.50
2022-10-09T12:05:39.766Z,41.20
2022-10-09T12:08:12.019Z,40.50
2022-10-09T12:10:49.885Z,39.90
2022-10-09T12:13:42.185Z,39.90
2022-10-09T12:16:29.180Z,40.30
2022-10-09T12:18:59.965Z,40.40
2022-10-09T12:21:41.522Z,40.80
2022-10-09T12:24:17.525Z,41.00
2022-10-09T12:26:46.384Z,40.70
2022-10-09T12:29:22.664Z,40.10
2022-10-09T12:31:53.759Z,40.30
2022-10-09T12:34:26.952Z,40.80
2022-10-09T12:37:05.079Z,41.30
2022-10-09T12:39:33.769Z,41.60
2022-10-09T12:42:01.703Z,41.50
2022-10-09T12:44:33.515Z,41.60
2022-10-09T12:47:04.545Z,41.40
2022-10-09T12:49:34.057Z,41.20
2022-10-09T12:52:02.636Z,40.90
2022-10-09T12:54:32.431Z,40.40
2022-10-09T12:57:01.558Z,40.00
2022-10-09T12:59:30.376Z,39.70
2022-10-09T13:02:00.482Z,39.60
2022-10-09T13:04:31.054Z,39.20
2022-10-09T13:07:03.161Z,38.80
2022-10-09T13:09:38.263Z,38.60
2022-10-09T13:12:09.826Z,38.80
2022-10-09T13:14:43.814Z,38.90
2022-10-09T13:17:24.754Z,39.10
2022-10-09T13:19:54.582Z,39.00
2022-10-09T13:22:25.458Z,38.70
2022-10-09T13:24:56.238Z,38.00
2022-10-09T13:27:28.305Z,37.20
2022-10-09T13:29:56.892Z,36.70
2022-10-09T13:32:25.803Z,36.20
2022-10-09T13:34:55.553Z,35.80
2022-10-09T13:37:26.184Z,35.40
2022-10-09T13:39:54.677Z,34.90
2022-10-09T13:42:25.095Z,34.10
2022-10-09T13:44:53.062Z,33.40
2022-10-09T13:47:24.495Z,32.50
2022-10-09T13:49:52.890Z,31.60
2022-10-09T13:52:20.763Z,30.80
2022-10-09T13:54:50.040Z,30.20
2022-10-09T13:57:17.983Z,29.50
2022-10-09T13:59:45.836Z,28.90
2022-10-09T14:02:14.045Z,28.40
2022-10-09T14:04:42.471Z,28.00
2022-10-09T14:07:10.386Z,27.70
2022-10-09T14:09:38.566Z,27.50
2022-10-09T14:12:07.809Z,27.50
2022-10-09T14:14:35.840Z,27.30
2022-10-09T14:17:03.709Z,26.80
2022-10-09T14:19:31.707Z,26.40
2022-10-09T14:21:59.712Z,26.00
2022-10-09T14:24:27.608Z,25.70
2022-10-09T14:26:55.480Z,25.30
2022-10-09T14:29:24.697Z,25.00
2022-10-09T14:31:52.580Z,24.70
2022-10-09T14:34:20.598Z,24.30
2022-10-09T14:36:48.817Z,24.10
2022-10-09T14:39:17.184Z,23.80
2022-10-09T14:41:45.773Z,23.60
2022-10-09T14:44:13.661Z,23.40
2022-10-09T14:46:45.770Z,23.20
2022-10-09T14:49:13.759Z,23.10
2022-10-09T14:51:42.403Z,23.00
2022-10-09T14:54:12.140Z,22.90
2022-10-09T14:56:40.298Z,22.70
2022-10-09T14:59:08.289Z,22.70
2022-10-09T15:01:36.731Z,22.60
2022-10-09T15:04:06.938Z,22.60
2022-10-09T15:06:35.103Z,22.50
2022-10-09T15:09:05.777Z,22.40
2022-10-09T15:11:35.842Z,22.30
2022-10-09T15:14:04.923Z,22.30
2022-10-09T15:16:32.771Z,22.20
2022-10-09T15:19:00.707Z,22.00
2022-10-09T15:21:31.766Z,21.90
2022-10-09T15:24:01.342Z,21.80
2022-10-09T15:26:32.729Z,21.70
2022-10-09T15:29:02.630Z,21.70
2022-10-09T15:31:33.143Z,21.50
2022-10-09T15:34:02.097Z,21.40
2022-10-09T15:36:34.527Z,21.30
2022-10-09T15:39:03.116Z,21.30
2022-10-09T15:41:32.799Z,21.20
2022-10-09T15:44:02.820Z,21.10
2022-10-09T15:46:31.429Z,20.90
2022-10-09T15:48:59.562Z,20.80
2022-10-09T15:51:29.246Z,20.80
2022-10-09T15:54:00.975Z,20.70
2022-10-09T15:56:29.509Z,20.50
2022-10-09T15:58:58.611Z,20.40
2022-10-09T16:01:26.611Z,20.20
2022-10-09T16:03:54.810Z,20.10
2022-10-09T16:06:33.449Z,20.00
2022-10-09T16:09:04.104Z,19.90
2022-10-09T16:11:32.276Z,19.80
2022-10-09T16:14:00.446Z,19.80
2022-10-09T16:16:28.608Z,19.70
2022-10-09T16:18:57.405Z,19.60
2022-10-09T16:21:27.761Z,19.60
2022-10-09T16:23:59.069Z,19.50
2022-10-09T16:26:30.409Z,19.40
2022-10-09T16:28:59.887Z,19.30
2022-10-09T16:31:31.198Z,19.10
2022-10-09T16:33:59.376Z,19.00
2022-10-09T16:36:27.684Z,19.00
2022-10-09T16:38:56.428Z,18.90
2022-10-09T16:41:25.017Z,18.80
2022-10-09T16:43:56.082Z,18.70
2022-10-09T16:46:26.310Z,18.60
2022-10-09T16:48:55.629Z,18.60
2022-10-09T16:51:25.696Z,18.50
2022-10-09T16:53:55.935Z,18.40
2022-10-09T16:56:26.630Z,18.40
2022-10-09T16:58:57.580Z,18.30
2022-10-09T17:01:26.118Z,18.20
2022-10-09T17:03:55.187Z,18.10
2022-10-09T17:06:24.458Z,18.10
2022-10-09T17:08:52.696Z,18.00
2022-10-09T17:11:21.805Z,18.00
2022-10-09T17:13:50.000Z,17.90
2022-10-09T17:16:22.130Z,17.80
2022-10-09T17:18:50.357Z,17.80
2022-10-09T17:21:19.646Z,17.80
2022-10-09T17:23:48.572Z,17.70
2022-10-09T17:26:18.127Z,17.70
2022-10-09T17:28:47.509Z,17.60
2022-10-09T17:31:18.169Z,17.60
2022-10-09T17:33:49.017Z,17.50
2022-10-09T17:36:19.468Z,17.50
2022-10-09T17:38:48.469Z,17.50
2022-10-09T17:41:18.471Z,17.40
2022-10-09T17:43:46.968Z,17.40
2022-10-09T17:46:15.611Z,17.40
2022-10-09T17:48:45.146Z,17.40
2022-10-09T17:51:17.885Z,17.30
2022-10-09T17:53:46.725Z,17.30
2022-10-09T17:56:17.852Z,17.20
2022-10-09T17:58:47.492Z,17.10
2022-10-09T18:01:16.500Z,17.10
2022-10-09T18:03:45.118Z,17.00
2022-10-09T18:06:16.435Z,17.00
2022-10-09T18:08:44.945Z,16.90
2022-10-09T18:11:15.339Z,16.80
2022-10-09T18:13:44.454Z,16.70
2022-10-09T18:16:14.958Z,16.60
2022-10-09T18:18:42.998Z,16.60
2022-10-09T18:21:12.922Z,16.40
2022-10-09T18:23:42.173Z,16.40
2022-10-09T18:26:10.750Z,16.30
2022-10-09T18:28:39.254Z,16.20
2022-10-09T18:31:08.248Z,16.10
2022-10-09T18:33:36.526Z,16.00
2022-10-09T18:36:06.143Z,16.00
2022-10-09T18:38:34.172Z,15.90
2022-10-09T18:41:03.473Z,15.90
2022-10-09T18:43:31.374Z,15.80
2022-10-09T18:46:00.758Z,15.80
2022-10-09T18:48:30.542Z,15.70
2022-10-09T18:50:59.044Z,15.70
2022-10-09T18:53:27.069Z,15.60
2022-10-09T18:55:55.014Z,15.50
2022-10-09T18:58:24.533Z,15.50
2022-10-09T19:00:52.533Z,15.40
2022-10-09T19:03:20.535Z,15.30
2022-10-09T19:05:48.433Z,15.30
2022-10-09T19:08:16.268Z,15.20
2022-10-09T19:10:44.135Z,15.20
2022-10-09T19:13:11.973Z,15.10
2022-10-09T19:15:41.211Z,15.10
2022-10-09T19:18:09.142Z,15.10
2022-10-09T19:20:40.164Z,15.00
2022-10-09T19:23:08.444Z,15.00
2022-10-09T19:25:36.295Z,15.00
2022-10-09T19:28:04.253Z,15.00
2022-10-09T19:30:32.459Z,15.00
2022-10-09T19:33:01.663Z,14.90
2022-10-09T19:35:29.569Z,14.90
2022-10-09T19:37:57.455Z,14.90
2022-10-09T19:40:25.978Z,14.90
2022-10-09T19:42:53.808Z,14.90
2022-10-09T19:45:21.693Z,14.80
2022-10-09T19:47:54.105Z,14.80
2022-10-09T19:50:23.980Z,14.80
2022-10-09T19:52:51.855Z,14.80
2022-10-09T19:55:19.770Z,14.80
2022-10-09T19:57:47.869Z,14.70
2022-10-09T20:00:16.375Z,14.70
2022-10-09T20:02:44.250Z,14.60
2022-10-09T20:05:12.189Z,14.60
2022-10-09T20:07:41.447Z,14.50
2022-10-09T20:10:10.184Z,14.50
2022-10-09T20:12:38.052Z,14.50
2022-10-09T20:15:07.074Z,14.50
2022-10-09T20:17:35.011Z,14.40
2022-10-09T20:20:04.929Z,14.40
2022-10-09T20:22:32.839Z,14.40
2022-10-09T20:25:02.086Z,14.40
2022-10-09T20:27:31.451Z,14.30
2022-10-09T20:29:59.382Z,14.30
2022-10-09T20:32:27.294Z,14.30
2022-10-09T20:34:55.297Z,14.30
2022-10-09T20:37:23.159Z,14.20
2022-10-09T20:39:51.677Z,14.20
2022-10-09T20:42:20.917Z,14.10
2022-10-09T20:44:48.735Z,14.10
2022-10-09T20:47:18.503Z,14.10
2022-10-09T20:49:46.398Z,14.00
2022-10-09T20:52:15.796Z,14.00
2022-10-09T20:54:43.701Z,13.90
2022-10-09T20:57:11.583Z,13.90
2022-10-09T20:59:40.800Z,13.90
2022-10-09T21:02:08.976Z,13.90
2022-10-09T21:04:36.872Z,13.90
2022-10-09T21:07:04.751Z,13.90
2022-10-09T21:09:33.495Z,13.90
2022-10-09T21:12:02.290Z,13.80
2022-10-09T21:14:30.169Z,13.70
2022-10-09T21:16:59.597Z,13.70
2022-10-09T21:19:27.602Z,13.70
2022-10-09T21:21:55.526Z,13.60
2022-10-09T21:24:23.356Z,13.60
2022-10-09T21:26:51.183Z,13.60
2022-10-09T21:29:19.048Z,13.60
2022-10-09T21:31:46.889Z,13.60
2022-10-09T21:34:16.110Z,13.60
2022-10-09T21:39:33.599Z,13.60
2022-10-09T21:42:01.437Z,13.60
2022-10-09T21:44:30.070Z,13.50
2022-10-09T21:46:57.921Z,13.40
2022-10-09T21:49:28.917Z,13.40
2022-10-09T21:51:57.290Z,13.30
2022-10-09T21:54:25.119Z,13.40
2022-10-09T21:56:53.013Z,13.40
2022-10-09T21:59:20.878Z,13.40
2022-10-09T22:01:48.771Z,13.30
2022-10-09T22:04:16.638Z,13.30
2022-10-09T22:06:45.899Z,13.30
2022-10-09T22:09:13.973Z,13.30
2022-10-09T22:11:41.902Z,13.30
2022-10-09T22:14:09.811Z,13.20
2022-10-09T22:16:37.907Z,13.20
2022-10-09T22:19:05.829Z,13.10
2022-10-09T22:21:33.734Z,13.10
2022-10-09T22:24:03.048Z,13.10
2022-10-09T22:26:30.963Z,13.10
2022-10-09T22:28:58.934Z,13.10
2022-10-09T22:31:28.491Z,13.10
2022-10-09T22:33:57.954Z,13.10
2022-10-09T22:36:28.163Z,13.10
2022-10-09T22:38:56.968Z,13.10
2022-10-09T22:41:28.014Z,13.10
2022-10-09T22:43:57.934Z,13.20
2022-10-09T22:46:27.706Z,13.20
2022-10-09T22:48:55.802Z,13.30
2022-10-09T22:51:25.537Z,13.30
2022-10-09T22:53:53.460Z,13.30
2022-10-09T22:56:23.331Z,13.30
2022-10-09T22:58:54.097Z,13.30
2022-10-09T23:01:25.127Z,13.40
2022-10-09T23:03:53.085Z,13.40
2022-10-09T23:06:21.360Z,13.40
2022-10-09T23:08:50.111Z,13.40
2022-10-09T23:11:18.862Z,13.40
2022-10-09T23:13:47.812Z,13.40
2022-10-09T23:16:17.223Z,13.40
2022-10-09T23:18:45.077Z,13.30
2022-10-09T23:21:15.330Z,13.30
2022-10-09T23:23:44.145Z,13.30
2022-10-09T23:26:14.284Z,13.30
2022-10-09T23:28:42.291Z,13.30
2022-10-09T23:31:12.370Z,13.30
2022-10-09T23:33:42.957Z,13.30
2022-10-09T23:36:12.807Z,13.30
2022-10-09T23:38:40.684Z,13.20
2022-10-09T23:41:11.788Z,13.20
2022-10-09T23:43:41.057Z,13.20
2022-10-09T23:46:11.864Z,13.20
2022-10-09T23:48:41.100Z,13.10
2022-10-09T23:51:09.321Z,13.10
2022-10-09T23:53:37.496Z,13.10
2022-10-09T23:56:07.306Z,13.00
2022-10-09T23:58:35.135Z,13.00
